sensor_id;sensor_type;location;lat;lon;timestamp;temperature;humidity
20041;DHT22;10181;48.072;9.884;2023-04-30T00:00:50;10.50;99.90
20041;DHT22;10181;48.072;9.884;2023-04-30T00:03:16;10.50;99.90
20041;DHT22;10181;48.072;9.884;2023-04-30T00:05:41;10.50;99.90
20041;DHT22;10181;48.072;9.884;2023-04-30T00:08:07;10.50;99.90
20041;DHT22;10181;48.072;9.884;2023-04-30T00:10:33;10.50;99.90
20041;DHT22;10181;48.072;9.884;2023-04-30T00:12:58;10.50;99.90
20041;DHT22;10181;48.072;9.884;2023-04-30T00:15:24;10.50;99.90
20041;DHT22;10181;48.072;9.884;2023-04-30T00:17:50;10.50;99.90
20041;DHT22;10181;48.072;9.884;2023-04-30T00:20:15;10.50;99.90
20041;DHT22;10181;48.072;9.884;2023-04-30T00:22:41;10.50;99.90
20041;DHT22;10181;48.072;9.884;2023-04-30T00:25:07;10.50;99.90
20041;DHT22;10181;48.072;9.884;2023-04-30T00:27:33;10.40;99.90
20041;DHT22;10181;48.072;9.884;2023-04-30T00:29:59;10.40;99.90
20041;DHT22;10181;48.072;9.884;2023-04-30T00:32:24;10.40;99.90
20041;DHT22;10181;48.072;9.884;2023-04-30T00:34:50;10.40;99.90
20041;DHT22;10181;48.072;9.884;2023-04-30T00:37:16;10.40;99.90
20041;DHT22;10181;48.072;9.884;2023-04-30T00:39:41;10.40;99.90
20041;DHT22;10181;48.072;9.884;2023-04-30T00:42:07;10.40;99.90
20041;DHT22;10181;48.072;9.884;2023-04-30T00:44:32;10.40;99.90
20041;DHT22;10181;48.072;9.884;2023-04-30T00:46:58;10.40;99.90
20041;DHT22;10181;48.072;9.884;2023-04-30T00:49:24;10.30;99.90
20041;DHT22;10181;48.072;9.884;2023-04-30T00:51:50;10.30;99.90
20041;DHT22;10181;48.072;9.884;2023-04-30T00:54:17;10.20;99.90
20041;DHT22;10181;48.072;9.884;2023-04-30T00:56:44;10.20;99.90
20041;DHT22;10181;48.072;9.884;2023-04-30T00:59:12;10.20;99.90
20041;DHT22;10181;48.072;9.884;2023-04-30T01:01:38;10.20;99.90
20041;DHT22;10181;48.072;9.884;2023-04-30T01:04:03;10.10;99.90
20041;DHT22;10181;48.072;9.884;2023-04-30T01:06:29;10.00;99.90
20041;DHT22;10181;48.072;9.884;2023-04-30T01:08:57;10.00;99.90
20041;DHT22;10181;48.072;9.884;2023-04-30T01:11:40;10.00;99.90
20041;DHT22;10181;48.072;9.884;2023-04-30T01:14:29;10.00;99.90
20041;DHT22;10181;48.072;9.884;2023-04-30T01:17:04;10.00;99.90
20041;DHT22;10181;48.072;9.884;2023-04-30T01:19:45;10.10;99.90
20041;DHT22;10181;48.072;9.884;2023-04-30T01:30:26;10.10;99.90
20041;DHT22;10181;48.072;9.884;2023-04-30T01:32:53;10.00;99.90
20041;DHT22;10181;48.072;9.884;2023-04-30T01:35:19;10.00;99.90
20041;DHT22;10181;48.072;9.884;2023-04-30T01:40:38;10.00;99.90
20041;DHT22;10181;48.072;9.884;2023-04-30T01:50:52;10.00;99.90
20041;DHT22;10181;48.072;9.884;2023-04-30T01:53:29;9.90;99.90
20041;DHT22;10181;48.072;9.884;2023-04-30T01:56:02;9.90;99.90
20041;DHT22;10181;48.072;9.884;2023-04-30T01:58:29;10.00;99.90
20041;DHT22;10181;48.072;9.884;2023-04-30T02:00:55;10.00;99.90
20041;DHT22;10181;48.072;9.884;2023-04-30T02:03:20;10.00;99.90
20041;DHT22;10181;48.072;9.884;2023-04-30T02:05:47;9.90;99.90
20041;DHT22;10181;48.072;9.884;2023-04-30T02:08:12;9.90;99.90
20041;DHT22;10181;48.072;9.884;2023-04-30T02:10:38;9.90;99.90
20041;DHT22;10181;48.072;9.884;2023-04-30T02:13:04;9.80;99.90
20041;DHT22;10181;48.072;9.884;2023-04-30T02:15:29;9.80;99.90
20041;DHT22;10181;48.072;9.884;2023-04-30T02:17:55;9.70;99.90
20041;DHT22;10181;48.072;9.884;2023-04-30T02:20:21;9.70;99.90
20041;DHT22;10181;48.072;9.884;2023-04-30T02:22:46;9.60;99.90
20041;DHT22;10181;48.072;9.884;2023-04-30T02:25:12;9.60;99.90
20041;DHT22;10181;48.072;9.884;2023-04-30T02:27:38;9.60;99.90
20041;DHT22;10181;48.072;9.884;2023-04-30T02:30:05;9.60;99.90
20041;DHT22;10181;48.072;9.884;2023-04-30T02:32:30;9.50;99.90
20041;DHT22;10181;48.072;9.884;2023-04-30T02:34:56;9.50;99.90
20041;DHT22;10181;48.072;9.884;2023-04-30T02:37:22;9.50;99.90
20041;DHT22;10181;48.072;9.884;2023-04-30T02:39:48;9.40;99.90
20041;DHT22;10181;48.072;9.884;2023-04-30T02:42:14;9.40;99.90
20041;DHT22;10181;48.072;9.884;2023-04-30T02:44:39;9.40;99.90
20041;DHT22;10181;48.072;9.884;2023-04-30T02:47:05;9.30;99.90
20041;DHT22;10181;48.072;9.884;2023-04-30T02:49:31;9.30;99.90
20041;DHT22;10181;48.072;9.884;2023-04-30T02:51:56;9.30;99.90
20041;DHT22;10181;48.072;9.884;2023-04-30T02:54:22;9.30;99.90
20041;DHT22;10181;48.072;9.884;2023-04-30T02:56:47;9.30;99.90
20041;DHT22;10181;48.072;9.884;2023-04-30T02:59:13;9.30;99.90
20041;DHT22;10181;48.072;9.884;2023-04-30T03:01:39;9.20;99.90
20041;DHT22;10181;48.072;9.884;2023-04-30T03:04:04;9.30;99.90
20041;DHT22;10181;48.072;9.884;2023-04-30T03:06:31;9.30;99.90
20041;DHT22;10181;48.072;9.884;2023-04-30T03:08:57;9.20;99.90
20041;DHT22;10181;48.072;9.884;2023-04-30T03:11:23;9.20;99.90
20041;DHT22;10181;48.072;9.884;2023-04-30T03:13:49;9.10;99.90
20041;DHT22;10181;48.072;9.884;2023-04-30T03:16:16;9.10;99.90
20041;DHT22;10181;48.072;9.884;2023-04-30T03:18:43;9.00;99.90
20041;DHT22;10181;48.072;9.884;2023-04-30T03:21:09;9.00;99.90
20041;DHT22;10181;48.072;9.884;2023-04-30T03:23:34;9.00;99.90
20041;DHT22;10181;48.072;9.884;2023-04-30T03:26:00;8.90;99.90
20041;DHT22;10181;48.072;9.884;2023-04-30T03:28:25;8.80;99.90
20041;DHT22;10181;48.072;9.884;2023-04-30T03:30:51;8.80;99.90
20041;DHT22;10181;48.072;9.884;2023-04-30T03:33:17;8.80;99.90
20041;DHT22;10181;48.072;9.884;2023-04-30T03:35:42;8.80;99.90
20041;DHT22;10181;48.072;9.884;2023-04-30T03:38:08;8.80;99.90
20041;DHT22;10181;48.072;9.884;2023-04-30T03:40:34;8.80;99.90
20041;DHT22;10181;48.072;9.884;2023-04-30T03:42:59;8.70;99.90
20041;DHT22;10181;48.072;9.884;2023-04-30T03:45:25;8.70;99.90
20041;DHT22;10181;48.072;9.884;2023-04-30T03:47:50;8.70;99.90
20041;DHT22;10181;48.072;9.884;2023-04-30T03:50:17;8.60;99.90
20041;DHT22;10181;48.072;9.884;2023-04-30T03:52:43;8.50;99.90
20041;DHT22;10181;48.072;9.884;2023-04-30T03:55:09;8.50;99.90
20041;DHT22;10181;48.072;9.884;2023-04-30T03:57:35;8.50;99.90
20041;DHT22;10181;48.072;9.884;2023-04-30T04:00:01;8.50;99.90
20041;DHT22;10181;48.072;9.884;2023-04-30T04:02:32;8.50;99.90
20041;DHT22;10181;48.072;9.884;2023-04-30T04:04:57;8.50;99.90
20041;DHT22;10181;48.072;9.884;2023-04-30T04:07:23;8.50;99.90
20041;DHT22;10181;48.072;9.884;2023-04-30T04:09:49;8.50;99.90
20041;DHT22;10181;48.072;9.884;2023-04-30T04:12:14;8.50;99.90
20041;DHT22;10181;48.072;9.884;2023-04-30T04:14:40;8.50;99.90
20041;DHT22;10181;48.072;9.884;2023-04-30T04:17:05;8.50;99.90
20041;DHT22;10181;48.072;9.884;2023-04-30T04:19:31;8.50;99.90
20041;DHT22;10181;48.072;9.884;2023-04-30T04:21:57;8.40;99.90
20041;DHT22;10181;48.072;9.884;2023-04-30T04:24:25;8.40;99.90
20041;DHT22;10181;48.072;9.884;2023-04-30T04:26:51;8.40;99.90
20041;DHT22;10181;48.072;9.884;2023-04-30T04:29:17;8.40;99.90
20041;DHT22;10181;48.072;9.884;2023-04-30T04:31:43;8.40;99.90
20041;DHT22;10181;48.072;9.884;2023-04-30T04:34:09;8.40;99.90
20041;DHT22;10181;48.072;9.884;2023-04-30T04:36:35;8.40;99.90
20041;DHT22;10181;48.072;9.884;2023-04-30T04:39:01;8.30;99.90
20041;DHT22;10181;48.072;9.884;2023-04-30T04:41:30;8.30;99.90
20041;DHT22;10181;48.072;9.884;2023-04-30T04:44:02;8.40;99.90
20041;DHT22;10181;48.072;9.884;2023-04-30T04:46:30;8.30;99.90
20041;DHT22;10181;48.072;9.884;2023-04-30T04:48:56;8.40;99.90
20041;DHT22;10181;48.072;9.884;2023-04-30T04:51:22;8.40;99.90
20041;DHT22;10181;48.072;9.884;2023-04-30T04:53:48;8.40;99.90
20041;DHT22;10181;48.072;9.884;2023-04-30T04:56:13;8.40;99.90
20041;DHT22;10181;48.072;9.884;2023-04-30T04:58:40;8.40;99.90
20041;DHT22;10181;48.072;9.884;2023-04-30T05:01:06;8.40;99.90
20041;DHT22;10181;48.072;9.884;2023-04-30T05:03:34;8.50;99.90
20041;DHT22;10181;48.072;9.884;2023-04-30T05:06:03;8.50;99.90
20041;DHT22;10181;48.072;9.884;2023-04-30T05:08:29;8.50;99.90
20041;DHT22;10181;48.072;9.884;2023-04-30T05:10:55;8.60;99.90
20041;DHT22;10181;48.072;9.884;2023-04-30T05:13:20;8.60;99.90
20041;DHT22;10181;48.072;9.884;2023-04-30T05:15:51;8.70;99.90
20041;DHT22;10181;48.072;9.884;2023-04-30T05:18:17;8.70;99.90
20041;DHT22;10181;48.072;9.884;2023-04-30T05:20:43;8.80;99.90
20041;DHT22;10181;48.072;9.884;2023-04-30T05:23:08;8.80;99.90
20041;DHT22;10181;48.072;9.884;2023-04-30T05:25:37;8.90;99.90
20041;DHT22;10181;48.072;9.884;2023-04-30T05:28:03;8.90;99.90
20041;DHT22;10181;48.072;9.884;2023-04-30T05:30:29;9.00;99.90
20041;DHT22;10181;48.072;9.884;2023-04-30T05:32:56;9.00;99.90
20041;DHT22;10181;48.072;9.884;2023-04-30T05:35:21;9.10;99.90
20041;DHT22;10181;48.072;9.884;2023-04-30T05:37:47;9.20;99.90
20041;DHT22;10181;48.072;9.884;2023-04-30T05:40:13;9.20;99.90
20041;DHT22;10181;48.072;9.884;2023-04-30T05:42:40;9.30;99.90
20041;DHT22;10181;48.072;9.884;2023-04-30T05:45:08;9.40;99.90
20041;DHT22;10181;48.072;9.884;2023-04-30T05:47:34;9.40;99.90
20041;DHT22;10181;48.072;9.884;2023-04-30T05:49:59;9.50;99.90
20041;DHT22;10181;48.072;9.884;2023-04-30T05:52:25;9.50;99.90
20041;DHT22;10181;48.072;9.884;2023-04-30T05:54:51;9.60;99.90
20041;DHT22;10181;48.072;9.884;2023-04-30T05:57:16;9.70;99.90
20041;DHT22;10181;48.072;9.884;2023-04-30T05:59:42;9.70;99.90
20041;DHT22;10181;48.072;9.884;2023-04-30T06:02:08;9.70;99.90
20041;DHT22;10181;48.072;9.884;2023-04-30T06:04:33;9.70;99.90
20041;DHT22;10181;48.072;9.884;2023-04-30T06:06:59;9.80;99.90
20041;DHT22;10181;48.072;9.884;2023-04-30T06:09:27;9.90;99.90
20041;DHT22;10181;48.072;9.884;2023-04-30T06:11:54;9.90;99.90
20041;DHT22;10181;48.072;9.884;2023-04-30T06:14:20;10.00;99.90
20041;DHT22;10181;48.072;9.884;2023-04-30T06:16:47;10.00;99.90
20041;DHT22;10181;48.072;9.884;2023-04-30T06:19:12;10.10;99.90
20041;DHT22;10181;48.072;9.884;2023-04-30T06:21:38;10.10;99.90
20041;DHT22;10181;48.072;9.884;2023-04-30T06:24:05;10.20;99.90
20041;DHT22;10181;48.072;9.884;2023-04-30T06:26:31;10.20;99.90
20041;DHT22;10181;48.072;9.884;2023-04-30T06:28:57;10.30;99.90
20041;DHT22;10181;48.072;9.884;2023-04-30T06:31:22;10.30;99.90
20041;DHT22;10181;48.072;9.884;2023-04-30T06:33:48;10.30;99.90
20041;DHT22;10181;48.072;9.884;2023-04-30T06:36:14;10.40;99.90
20041;DHT22;10181;48.072;9.884;2023-04-30T06:38:40;10.30;99.90
20041;DHT22;10181;48.072;9.884;2023-04-30T06:41:07;10.40;99.90
20041;DHT22;10181;48.072;9.884;2023-04-30T06:43:33;10.40;99.90
20041;DHT22;10181;48.072;9.884;2023-04-30T06:45:58;10.50;99.90
20041;DHT22;10181;48.072;9.884;2023-04-30T06:48:24;10.60;99.90
20041;DHT22;10181;48.072;9.884;2023-04-30T06:50:50;10.60;99.90
20041;DHT22;10181;48.072;9.884;2023-04-30T06:53:15;10.60;99.90
20041;DHT22;10181;48.072;9.884;2023-04-30T06:55:41;10.60;99.90
20041;DHT22;10181;48.072;9.884;2023-04-30T06:58:07;10.60;99.90
20041;DHT22;10181;48.072;9.884;2023-04-30T07:00:33;10.60;99.90
20041;DHT22;10181;48.072;9.884;2023-04-30T07:02:59;10.70;99.90
20041;DHT22;10181;48.072;9.884;2023-04-30T07:05:27;10.70;99.90
20041;DHT22;10181;48.072;9.884;2023-04-30T07:07:53;10.70;99.90
20041;DHT22;10181;48.072;9.884;2023-04-30T07:10:18;10.70;99.90
20041;DHT22;10181;48.072;9.884;2023-04-30T07:12:44;10.80;99.90
20041;DHT22;10181;48.072;9.884;2023-04-30T07:15:10;10.80;99.90
20041;DHT22;10181;48.072;9.884;2023-04-30T07:17:36;10.80;99.90
20041;DHT22;10181;48.072;9.884;2023-04-30T07:20:03;10.90;99.90
20041;DHT22;10181;48.072;9.884;2023-04-30T07:22:32;10.90;99.90
20041;DHT22;10181;48.072;9.884;2023-04-30T07:24:58;10.80;99.90
20041;DHT22;10181;48.072;9.884;2023-04-30T07:27:25;11.00;99.90
20041;DHT22;10181;48.072;9.884;2023-04-30T07:29:50;11.10;99.90
20041;DHT22;10181;48.072;9.884;2023-04-30T07:32:16;11.20;99.90
20041;DHT22;10181;48.072;9.884;2023-04-30T07:34:42;11.20;99.90
20041;DHT22;10181;48.072;9.884;2023-04-30T07:37:08;11.30;99.90
20041;DHT22;10181;48.072;9.884;2023-04-30T07:39:34;11.30;99.90
20041;DHT22;10181;48.072;9.884;2023-04-30T07:42:01;11.40;99.90
20041;DHT22;10181;48.072;9.884;2023-04-30T07:44:27;11.50;99.90
20041;DHT22;10181;48.072;9.884;2023-04-30T07:46:53;11.50;99.90
20041;DHT22;10181;48.072;9.884;2023-04-30T07:49:18;11.50;99.90
20041;DHT22;10181;48.072;9.884;2023-04-30T07:51:44;11.60;99.90
20041;DHT22;10181;48.072;9.884;2023-04-30T07:54:11;11.60;99.90
20041;DHT22;10181;48.072;9.884;2023-04-30T07:56:36;11.80;99.90
20041;DHT22;10181;48.072;9.884;2023-04-30T07:59:02;11.80;99.90
20041;DHT22;10181;48.072;9.884;2023-04-30T08:01:27;11.90;99.90
20041;DHT22;10181;48.072;9.884;2023-04-30T08:03:53;12.10;99.90
20041;DHT22;10181;48.072;9.884;2023-04-30T08:06:19;12.30;99.90
20041;DHT22;10181;48.072;9.884;2023-04-30T08:08:44;12.40;99.90
20041;DHT22;10181;48.072;9.884;2023-04-30T08:11:10;12.60;99.90
20041;DHT22;10181;48.072;9.884;2023-04-30T08:13:37;12.70;99.90
20041;DHT22;10181;48.072;9.884;2023-04-30T08:16:02;12.70;99.90
20041;DHT22;10181;48.072;9.884;2023-04-30T08:18:28;12.80;99.90
20041;DHT22;10181;48.072;9.884;2023-04-30T08:20:54;12.90;99.90
20041;DHT22;10181;48.072;9.884;2023-04-30T08:23:20;12.90;99.90
20041;DHT22;10181;48.072;9.884;2023-04-30T08:25:45;12.80;99.90
20041;DHT22;10181;48.072;9.884;2023-04-30T08:28:11;12.60;99.90
20041;DHT22;10181;48.072;9.884;2023-04-30T08:30:37;12.50;99.90
20041;DHT22;10181;48.072;9.884;2023-04-30T08:33:03;12.40;99.90
20041;DHT22;10181;48.072;9.884;2023-04-30T08:35:28;12.40;99.90
20041;DHT22;10181;48.072;9.884;2023-04-30T08:37:54;12.30;99.90
20041;DHT22;10181;48.072;9.884;2023-04-30T08:40:20;12.20;99.90
20041;DHT22;10181;48.072;9.884;2023-04-30T08:43:12;12.20;99.90
20041;DHT22;10181;48.072;9.884;2023-04-30T08:45:37;12.20;99.90
20041;DHT22;10181;48.072;9.884;2023-04-30T08:48:05;12.20;99.90
20041;DHT22;10181;48.072;9.884;2023-04-30T08:50:35;12.30;99.90
20041;DHT22;10181;48.072;9.884;2023-04-30T08:53:00;12.20;99.90
20041;DHT22;10181;48.072;9.884;2023-04-30T08:55:27;12.20;99.90
20041;DHT22;10181;48.072;9.884;2023-04-30T08:57:53;12.20;99.90
20041;DHT22;10181;48.072;9.884;2023-04-30T09:00:18;12.30;99.90
20041;DHT22;10181;48.072;9.884;2023-04-30T09:02:46;12.40;99.90
20041;DHT22;10181;48.072;9.884;2023-04-30T09:05:13;12.50;99.90
20041;DHT22;10181;48.072;9.884;2023-04-30T09:07:41;12.60;99.90
20041;DHT22;10181;48.072;9.884;2023-04-30T09:10:20;12.80;99.90
20041;DHT22;10181;48.072;9.884;2023-04-30T09:13:05;13.00;99.90
20041;DHT22;10181;48.072;9.884;2023-04-30T09:15:32;13.10;99.90
20041;DHT22;10181;48.072;9.884;2023-04-30T09:18:18;13.10;99.90
20041;DHT22;10181;48.072;9.884;2023-04-30T09:20:55;13.10;99.90
20041;DHT22;10181;48.072;9.884;2023-04-30T09:23:21;13.10;99.90
20041;DHT22;10181;48.072;9.884;2023-04-30T09:25:47;13.10;99.90
20041;DHT22;10181;48.072;9.884;2023-04-30T09:28:13;13.10;99.90
20041;DHT22;10181;48.072;9.884;2023-04-30T09:30:40;13.10;99.90
20041;DHT22;10181;48.072;9.884;2023-04-30T09:33:06;13.10;99.90
20041;DHT22;10181;48.072;9.884;2023-04-30T09:35:33;13.00;99.90
20041;DHT22;10181;48.072;9.884;2023-04-30T09:38:00;13.10;99.90
20041;DHT22;10181;48.072;9.884;2023-04-30T09:40:40;13.10;99.90
20041;DHT22;10181;48.072;9.884;2023-04-30T09:43:07;13.00;99.90
20041;DHT22;10181;48.072;9.884;2023-04-30T09:45:47;13.10;99.90
20041;DHT22;10181;48.072;9.884;2023-04-30T09:48:21;13.20;99.90
20041;DHT22;10181;48.072;9.884;2023-04-30T09:50:48;13.30;99.90
20041;DHT22;10181;48.072;9.884;2023-04-30T09:53:14;13.40;99.90
20041;DHT22;10181;48.072;9.884;2023-04-30T09:55:44;13.50;99.90
20041;DHT22;10181;48.072;9.884;2023-04-30T09:58:10;13.70;99.90
20041;DHT22;10181;48.072;9.884;2023-04-30T10:00:37;13.80;99.90
20041;DHT22;10181;48.072;9.884;2023-04-30T10:03:09;13.80;99.90
20041;DHT22;10181;48.072;9.884;2023-04-30T10:05:45;13.80;99.90
20041;DHT22;10181;48.072;9.884;2023-04-30T10:08:34;14.00;99.90
20041;DHT22;10181;48.072;9.884;2023-04-30T10:11:04;14.20;99.90
20041;DHT22;10181;48.072;9.884;2023-04-30T10:13:37;14.40;99.90
20041;DHT22;10181;48.072;9.884;2023-04-30T10:16:08;14.50;99.90
20041;DHT22;10181;48.072;9.884;2023-04-30T10:18:41;14.60;99.90
20041;DHT22;10181;48.072;9.884;2023-04-30T10:21:11;14.60;99.90
20041;DHT22;10181;48.072;9.884;2023-04-30T10:23:39;14.60;99.90
20041;DHT22;10181;48.072;9.884;2023-04-30T10:26:09;14.50;99.90
20041;DHT22;10181;48.072;9.884;2023-04-30T10:28:37;14.40;99.90
20041;DHT22;10181;48.072;9.884;2023-04-30T10:31:04;14.40;99.90
20041;DHT22;10181;48.072;9.884;2023-04-30T10:33:56;14.50;99.90
20041;DHT22;10181;48.072;9.884;2023-04-30T10:36:47;14.60;99.90
20041;DHT22;10181;48.072;9.884;2023-04-30T10:39:24;14.70;99.90
20041;DHT22;10181;48.072;9.884;2023-04-30T10:42:02;14.60;99.90
20041;DHT22;10181;48.072;9.884;2023-04-30T10:44:31;14.70;99.90
20041;DHT22;10181;48.072;9.884;2023-04-30T10:47:00;14.70;99.90
20041;DHT22;10181;48.072;9.884;2023-04-30T10:49:27;14.70;99.90
20041;DHT22;10181;48.072;9.884;2023-04-30T10:51:53;14.80;99.90
20041;DHT22;10181;48.072;9.884;2023-04-30T10:54:27;14.80;99.90
20041;DHT22;10181;48.072;9.884;2023-04-30T10:57:07;14.70;99.90
20041;DHT22;10181;48.072;9.884;2023-04-30T10:59:34;14.60;99.90
20041;DHT22;10181;48.072;9.884;2023-04-30T11:02:00;14.50;99.90
20041;DHT22;10181;48.072;9.884;2023-04-30T11:04:27;14.40;99.90
20041;DHT22;10181;48.072;9.884;2023-04-30T11:07:06;14.40;99.90
20041;DHT22;10181;48.072;9.884;2023-04-30T11:09:36;14.40;99.90
20041;DHT22;10181;48.072;9.884;2023-04-30T11:14:43;14.40;99.90
20041;DHT22;10181;48.072;9.884;2023-04-30T11:17:10;14.50;99.90
20041;DHT22;10181;48.072;9.884;2023-04-30T11:19:44;14.70;99.90
20041;DHT22;10181;48.072;9.884;2023-04-30T11:22:17;14.80;99.90
20041;DHT22;10181;48.072;9.884;2023-04-30T11:27:26;15.20;99.90
20041;DHT22;10181;48.072;9.884;2023-04-30T11:29:53;15.50;99.90
20041;DHT22;10181;48.072;9.884;2023-04-30T11:32:24;15.80;99.90
20041;DHT22;10181;48.072;9.884;2023-04-30T11:34:51;15.90;99.90
20041;DHT22;10181;48.072;9.884;2023-04-30T11:37:41;15.90;99.90
20041;DHT22;10181;48.072;9.884;2023-04-30T11:40:07;16.20;99.90
20041;DHT22;10181;48.072;9.884;2023-04-30T11:42:36;16.30;99.90
20041;DHT22;10181;48.072;9.884;2023-04-30T11:45:07;16.50;99.90
20041;DHT22;10181;48.072;9.884;2023-04-30T11:50:10;17.00;99.90
20041;DHT22;10181;48.072;9.884;2023-04-30T11:52:37;16.80;99.90
20041;DHT22;10181;48.072;9.884;2023-04-30T11:55:23;16.80;99.90
20041;DHT22;10181;48.072;9.884;2023-04-30T11:57:53;16.80;99.90
20041;DHT22;10181;48.072;9.884;2023-04-30T12:00:28;16.70;99.90
20041;DHT22;10181;48.072;9.884;2023-04-30T12:02:54;16.70;99.90
20041;DHT22;10181;48.072;9.884;2023-04-30T12:05:21;16.70;99.90
20041;DHT22;10181;48.072;9.884;2023-04-30T12:07:48;16.50;99.90
20041;DHT22;10181;48.072;9.884;2023-04-30T12:10:14;16.70;99.90
20041;DHT22;10181;48.072;9.884;2023-04-30T12:12:42;16.80;99.90
20041;DHT22;10181;48.072;9.884;2023-04-30T12:15:15;16.70;99.90
20041;DHT22;10181;48.072;9.884;2023-04-30T12:17:42;16.90;99.90
20041;DHT22;10181;48.072;9.884;2023-04-30T12:20:09;16.90;99.90
20041;DHT22;10181;48.072;9.884;2023-04-30T12:22:35;16.90;99.90
20041;DHT22;10181;48.072;9.884;2023-04-30T12:25:06;17.00;99.90
20041;DHT22;10181;48.072;9.884;2023-04-30T12:27:33;17.00;99.90
20041;DHT22;10181;48.072;9.884;2023-04-30T12:30:04;16.90;99.90
20041;DHT22;10181;48.072;9.884;2023-04-30T12:32:43;16.90;99.90
20041;DHT22;10181;48.072;9.884;2023-04-30T12:35:16;17.00;99.90
20041;DHT22;10181;48.072;9.884;2023-04-30T12:37:43;17.20;99.90
20041;DHT22;10181;48.072;9.884;2023-04-30T12:40:10;17.20;99.90
20041;DHT22;10181;48.072;9.884;2023-04-30T12:42:36;17.10;99.90
20041;DHT22;10181;48.072;9.884;2023-04-30T12:45:02;16.90;99.90
20041;DHT22;10181;48.072;9.884;2023-04-30T12:47:28;16.70;99.90
20041;DHT22;10181;48.072;9.884;2023-04-30T12:49:54;16.60;99.90
20041;DHT22;10181;48.072;9.884;2023-04-30T12:52:23;16.50;99.90
20041;DHT22;10181;48.072;9.884;2023-04-30T12:54:50;16.30;99.90
20041;DHT22;10181;48.072;9.884;2023-04-30T12:57:16;16.20;99.90
20041;DHT22;10181;48.072;9.884;2023-04-30T13:02:16;16.10;99.90
20041;DHT22;10181;48.072;9.884;2023-04-30T13:04:42;16.10;99.90
20041;DHT22;10181;48.072;9.884;2023-04-30T13:07:08;16.10;99.90
20041;DHT22;10181;48.072;9.884;2023-04-30T13:09:35;16.10;99.90
20041;DHT22;10181;48.072;9.884;2023-04-30T13:12:01;16.00;99.90
20041;DHT22;10181;48.072;9.884;2023-04-30T13:14:27;15.90;99.90
20041;DHT22;10181;48.072;9.884;2023-04-30T13:16:53;15.90;99.90
20041;DHT22;10181;48.072;9.884;2023-04-30T13:19:19;15.90;99.90
20041;DHT22;10181;48.072;9.884;2023-04-30T13:21:45;15.90;99.90
20041;DHT22;10181;48.072;9.884;2023-04-30T13:24:10;15.90;99.90
20041;DHT22;10181;48.072;9.884;2023-04-30T13:26:36;15.90;99.90
20041;DHT22;10181;48.072;9.884;2023-04-30T13:29:02;15.90;99.90
20041;DHT22;10181;48.072;9.884;2023-04-30T13:31:29;15.90;99.90
20041;DHT22;10181;48.072;9.884;2023-04-30T13:33:54;16.10;99.90
20041;DHT22;10181;48.072;9.884;2023-04-30T13:36:20;16.20;99.90
20041;DHT22;10181;48.072;9.884;2023-04-30T13:38:46;16.30;99.90
20041;DHT22;10181;48.072;9.884;2023-04-30T13:41:12;16.40;99.90
20041;DHT22;10181;48.072;9.884;2023-04-30T13:43:38;16.50;99.90
20041;DHT22;10181;48.072;9.884;2023-04-30T13:46:05;16.60;99.90
20041;DHT22;10181;48.072;9.884;2023-04-30T13:48:31;16.60;99.90
20041;DHT22;10181;48.072;9.884;2023-04-30T13:50:57;16.70;99.90
20041;DHT22;10181;48.072;9.884;2023-04-30T13:53:22;16.80;99.90
20041;DHT22;10181;48.072;9.884;2023-04-30T13:55:48;16.80;99.90
20041;DHT22;10181;48.072;9.884;2023-04-30T13:58:14;16.80;99.90
20041;DHT22;10181;48.072;9.884;2023-04-30T14:00:40;16.80;99.90
20041;DHT22;10181;48.072;9.884;2023-04-30T14:03:06;16.60;99.90
20041;DHT22;10181;48.072;9.884;2023-04-30T14:05:31;16.50;99.90
20041;DHT22;10181;48.072;9.884;2023-04-30T14:07:57;16.60;99.90
20041;DHT22;10181;48.072;9.884;2023-04-30T14:10:22;16.60;99.90
20041;DHT22;10181;48.072;9.884;2023-04-30T14:12:48;16.60;99.90
20041;DHT22;10181;48.072;9.884;2023-04-30T14:15:14;16.60;99.90
20041;DHT22;10181;48.072;9.884;2023-04-30T14:17:40;16.60;99.90
20041;DHT22;10181;48.072;9.884;2023-04-30T14:20:06;16.60;99.90
20041;DHT22;10181;48.072;9.884;2023-04-30T14:22:32;16.60;99.90
20041;DHT22;10181;48.072;9.884;2023-04-30T14:25:00;16.40;99.90
20041;DHT22;10181;48.072;9.884;2023-04-30T14:27:25;16.40;99.90
20041;DHT22;10181;48.072;9.884;2023-04-30T14:29:51;16.50;99.90
20041;DHT22;10181;48.072;9.884;2023-04-30T14:32:17;16.40;99.90
20041;DHT22;10181;48.072;9.884;2023-04-30T14:34:42;16.50;99.90
20041;DHT22;10181;48.072;9.884;2023-04-30T14:37:09;16.70;99.90
20041;DHT22;10181;48.072;9.884;2023-04-30T14:39:34;16.70;99.90
20041;DHT22;10181;48.072;9.884;2023-04-30T14:42:00;17.00;99.90
20041;DHT22;10181;48.072;9.884;2023-04-30T14:44:26;17.10;99.90
20041;DHT22;10181;48.072;9.884;2023-04-30T14:46:51;17.20;99.90
20041;DHT22;10181;48.072;9.884;2023-04-30T14:49:17;17.30;99.90
20041;DHT22;10181;48.072;9.884;2023-04-30T14:51:43;17.20;99.90
20041;DHT22;10181;48.072;9.884;2023-04-30T14:54:08;17.10;99.90
20041;DHT22;10181;48.072;9.884;2023-04-30T14:56:34;17.10;99.90
20041;DHT22;10181;48.072;9.884;2023-04-30T14:59:00;17.20;99.90
20041;DHT22;10181;48.072;9.884;2023-04-30T15:01:25;17.00;99.90
20041;DHT22;10181;48.072;9.884;2023-04-30T15:03:51;16.80;99.90
20041;DHT22;10181;48.072;9.884;2023-04-30T15:06:17;16.50;99.90
20041;DHT22;10181;48.072;9.884;2023-04-30T15:08:43;16.60;99.90
20041;DHT22;10181;48.072;9.884;2023-04-30T15:11:09;16.60;99.90
20041;DHT22;10181;48.072;9.884;2023-04-30T15:13:36;16.60;99.90
20041;DHT22;10181;48.072;9.884;2023-04-30T15:16:02;16.70;99.90
20041;DHT22;10181;48.072;9.884;2023-04-30T15:18:28;16.80;99.90
20041;DHT22;10181;48.072;9.884;2023-04-30T15:20:53;16.70;99.90
20041;DHT22;10181;48.072;9.884;2023-04-30T15:23:19;16.70;99.90
20041;DHT22;10181;48.072;9.884;2023-04-30T15:25:45;16.80;99.90
20041;DHT22;10181;48.072;9.884;2023-04-30T15:28:11;16.80;99.90
20041;DHT22;10181;48.072;9.884;2023-04-30T15:30:37;16.70;99.90
20041;DHT22;10181;48.072;9.884;2023-04-30T15:33:03;16.60;99.90
20041;DHT22;10181;48.072;9.884;2023-04-30T15:35:28;16.60;99.90
20041;DHT22;10181;48.072;9.884;2023-04-30T15:37:54;16.50;99.90
20041;DHT22;10181;48.072;9.884;2023-04-30T15:40:19;16.40;99.90
20041;DHT22;10181;48.072;9.884;2023-04-30T15:42:45;16.30;99.90
20041;DHT22;10181;48.072;9.884;2023-04-30T15:45:11;16.40;99.90
20041;DHT22;10181;48.072;9.884;2023-04-30T15:47:37;16.50;99.90
20041;DHT22;10181;48.072;9.884;2023-04-30T15:50:03;16.60;99.90
20041;DHT22;10181;48.072;9.884;2023-04-30T15:52:29;16.80;99.90
20041;DHT22;10181;48.072;9.884;2023-04-30T15:54:55;17.00;99.90
20041;DHT22;10181;48.072;9.884;2023-04-30T15:57:21;17.10;99.90
20041;DHT22;10181;48.072;9.884;2023-04-30T15:59:46;17.20;99.90
20041;DHT22;10181;48.072;9.884;2023-04-30T16:02:12;17.10;99.90
20041;DHT22;10181;48.072;9.884;2023-04-30T16:04:37;17.00;99.90